sensor_id;sensor_type;location;lat;lon;timestamp;P1;durP1;ratioP1;P2;durP2;ratioP2
2299;SDS011;1158;48.750;9.078;2022-09-09T00:02:22;6.30;;;2.50;;
2299;SDS011;1158;48.750;9.078;2022-09-09T00:04:57;6.90;;;2.20;;
2299;SDS011;1158;48.750;9.078;2022-09-09T00:07:30;4.27;;;2.27;;
2299;SDS011;1158;48.750;9.078;2022-09-09T00:10:05;5.37;;;2.70;;
2299;SDS011;1158;48.750;9.078;2022-09-09T00:12:42;5.13;;;2.20;;
2299;SDS011;1158;48.750;9.078;2022-09-09T00:15:18;8.33;;;2.17;;
2299;SDS011;1158;48.750;9.078;2022-09-09T00:17:48;14.80;;;3.63;;
2299;SDS011;1158;48.750;9.078;2022-09-09T00:20:23;11.50;;;2.67;;
2299;SDS011;1158;48.750;9.078;2022-09-09T00:22:57;12.33;;;3.10;;
2299;SDS011;1158;48.750;9.078;2022-09-09T00:25:32;2.90;;;2.10;;
2299;SDS011;1158;48.750;9.078;2022-09-09T00:28:04;3.63;;;2.00;;
2299;SDS011;1158;48.750;9.078;2022-09-09T00:30:44;6.20;;;2.20;;
2299;SDS011;1158;48.750;9.078;2022-09-09T00:33:13;3.73;;;2.40;;
2299;SDS011;1158;48.750;9.078;2022-09-09T00:35:46;3.70;;;2.37;;
2299;SDS011;1158;48.750;9.078;2022-09-09T00:38:15;6.80;;;2.50;;
2299;SDS011;1158;48.750;9.078;2022-09-09T00:40:46;6.60;;;1.93;;
2299;SDS011;1158;48.750;9.078;2022-09-09T00:43:26;6.07;;;2.53;;
2299;SDS011;1158;48.750;9.078;2022-09-09T00:49:04;5.53;;;2.90;;
2299;SDS011;1158;48.750;9.078;2022-09-09T00:51:43;2.93;;;2.10;;
2299;SDS011;1158;48.750;9.078;2022-09-09T00:54:19;3.00;;;2.33;;
2299;SDS011;1158;48.750;9.078;2022-09-09T00:56:56;4.30;;;2.20;;
2299;SDS011;1158;48.750;9.078;2022-09-09T00:59:32;3.33;;;1.87;;
2299;SDS011;1158;48.750;9.078;2022-09-09T01:02:13;4.53;;;1.97;;
2299;SDS011;1158;48.750;9.078;2022-09-09T01:04:49;2.80;;;1.70;;
2299;SDS011;1158;48.750;9.078;2022-09-09T01:07:17;6.70;;;2.13;;
2299;SDS011;1158;48.750;9.078;2022-09-09T01:09:51;3.47;;;2.10;;
2299;SDS011;1158;48.750;9.078;2022-09-09T01:12:34;3.80;;;2.30;;
2299;SDS011;1158;48.750;9.078;2022-09-09T01:15:09;3.20;;;1.80;;
2299;SDS011;1158;48.750;9.078;2022-09-09T01:17:44;4.60;;;1.80;;
2299;SDS011;1158;48.750;9.078;2022-09-09T01:20:17;6.90;;;2.63;;
2299;SDS011;1158;48.750;9.078;2022-09-09T01:22:52;7.93;;;2.47;;
2299;SDS011;1158;48.750;9.078;2022-09-09T01:28:51;5.57;;;3.00;;
2299;SDS011;1158;48.750;9.078;2022-09-09T01:31:19;4.17;;;1.80;;
2299;SDS011;1158;48.750;9.078;2022-09-09T01:33:48;6.80;;;2.33;;
2299;SDS011;1158;48.750;9.078;2022-09-09T01:36:18;7.77;;;2.53;;
2299;SDS011;1158;48.750;9.078;2022-09-09T01:38:49;5.40;;;2.27;;
2299;SDS011;1158;48.750;9.078;2022-09-09T01:41:16;5.70;;;2.10;;
2299;SDS011;1158;48.750;9.078;2022-09-09T01:43:45;4.70;;;2.20;;
2299;SDS011;1158;48.750;9.078;2022-09-09T01:46:11;3.87;;;2.33;;
2299;SDS011;1158;48.750;9.078;2022-09-09T01:48:39;5.77;;;2.30;;
2299;SDS011;1158;48.750;9.078;2022-09-09T01:51:07;3.77;;;2.33;;
2299;SDS011;1158;48.750;9.078;2022-09-09T01:53:35;5.20;;;2.20;;
2299;SDS011;1158;48.750;9.078;2022-09-09T01:56:06;4.93;;;2.17;;
2299;SDS011;1158;48.750;9.078;2022-09-09T01:58:46;6.33;;;1.80;;
2299;SDS011;1158;48.750;9.078;2022-09-09T02:01:25;4.03;;;2.47;;
2299;SDS011;1158;48.750;9.078;2022-09-09T02:03:58;4.80;;;2.13;;
2299;SDS011;1158;48.750;9.078;2022-09-09T02:06:30;4.63;;;2.30;;
2299;SDS011;1158;48.750;9.078;2022-09-09T02:09:02;12.70;;;2.57;;
2299;SDS011;1158;48.750;9.078;2022-09-09T02:11:31;3.50;;;1.80;;
2299;SDS011;1158;48.750;9.078;2022-09-09T02:14:01;4.23;;;1.87;;
2299;SDS011;1158;48.750;9.078;2022-09-09T02:16:32;15.23;;;2.40;;
2299;SDS011;1158;48.750;9.078;2022-09-09T02:19:06;8.93;;;2.30;;
2299;SDS011;1158;48.750;9.078;2022-09-09T02:21:37;4.50;;;2.10;;
2299;SDS011;1158;48.750;9.078;2022-09-09T02:24:07;5.60;;;2.50;;
2299;SDS011;1158;48.750;9.078;2022-09-09T02:26:36;3.67;;;2.10;;
2299;SDS011;1158;48.750;9.078;2022-09-09T02:29:08;9.73;;;2.20;;
2299;SDS011;1158;48.750;9.078;2022-09-09T02:31:39;4.50;;;1.90;;
2299;SDS011;1158;48.750;9.078;2022-09-09T02:34:08;6.30;;;2.10;;
2299;SDS011;1158;48.750;9.078;2022-09-09T02:36:37;3.33;;;2.20;;
2299;SDS011;1158;48.750;9.078;2022-09-09T02:39:07;5.00;;;2.80;;
2299;SDS011;1158;48.750;9.078;2022-09-09T02:41:36;7.50;;;2.30;;
2299;SDS011;1158;48.750;9.078;2022-09-09T02:44:05;3.73;;;2.03;;
2299;SDS011;1158;48.750;9.078;2022-09-09T02:49:37;3.13;;;1.60;;
2299;SDS011;1158;48.750;9.078;2022-09-09T02:52:11;3.53;;;1.90;;
2299;SDS011;1158;48.750;9.078;2022-09-09T02:54:41;5.10;;;1.87;;
2299;SDS011;1158;48.750;9.078;2022-09-09T02:57:10;6.20;;;1.80;;
2299;SDS011;1158;48.750;9.078;2022-09-09T02:59:39;4.70;;;1.57;;
2299;SDS011;1158;48.750;9.078;2022-09-09T03:02:06;4.60;;;1.47;;
2299;SDS011;1158;48.750;9.078;2022-09-09T03:04:36;4.73;;;2.00;;
2299;SDS011;1158;48.750;9.078;2022-09-09T03:07:03;7.00;;;2.80;;
2299;SDS011;1158;48.750;9.078;2022-09-09T03:09:29;6.20;;;1.70;;
2299;SDS011;1158;48.750;9.078;2022-09-09T03:11:57;4.10;;;2.10;;
2299;SDS011;1158;48.750;9.078;2022-09-09T03:14:24;3.70;;;2.20;;
2299;SDS011;1158;48.750;9.078;2022-09-09T03:16:52;5.87;;;2.70;;
2299;SDS011;1158;48.750;9.078;2022-09-09T03:19:21;3.93;;;1.90;;
2299;SDS011;1158;48.750;9.078;2022-09-09T03:21:48;4.13;;;2.23;;
2299;SDS011;1158;48.750;9.078;2022-09-09T03:24:14;4.50;;;2.30;;
2299;SDS011;1158;48.750;9.078;2022-09-09T03:26:41;7.00;;;2.47;;
2299;SDS011;1158;48.750;9.078;2022-09-09T03:29:09;8.30;;;2.20;;
2299;SDS011;1158;48.750;9.078;2022-09-09T03:31:37;3.23;;;1.40;;
2299;SDS011;1158;48.750;9.078;2022-09-09T03:34:05;6.13;;;2.10;;
2299;SDS011;1158;48.750;9.078;2022-09-09T03:36:32;4.37;;;1.70;;
2299;SDS011;1158;48.750;9.078;2022-09-09T03:38:59;5.30;;;1.40;;
2299;SDS011;1158;48.750;9.078;2022-09-09T03:41:27;3.00;;;1.17;;
2299;SDS011;1158;48.750;9.078;2022-09-09T03:43:54;8.00;;;1.43;;
2299;SDS011;1158;48.750;9.078;2022-09-09T03:46:22;3.80;;;1.87;;
2299;SDS011;1158;48.750;9.078;2022-09-09T03:48:50;3.03;;;1.53;;
2299;SDS011;1158;48.750;9.078;2022-09-09T03:51:19;4.13;;;1.90;;
2299;SDS011;1158;48.750;9.078;2022-09-09T03:53:47;4.57;;;1.80;;
2299;SDS011;1158;48.750;9.078;2022-09-09T03:56:14;2.47;;;1.30;;
2299;SDS011;1158;48.750;9.078;2022-09-09T03:58:40;2.97;;;1.50;;
2299;SDS011;1158;48.750;9.078;2022-09-09T04:01:08;3.33;;;1.67;;
2299;SDS011;1158;48.750;9.078;2022-09-09T04:03:38;2.23;;;1.47;;
2299;SDS011;1158;48.750;9.078;2022-09-09T04:06:05;4.87;;;1.50;;
2299;SDS011;1158;48.750;9.078;2022-09-09T04:08:35;4.13;;;1.63;;
2299;SDS011;1158;48.750;9.078;2022-09-09T04:11:03;3.87;;;1.40;;
2299;SDS011;1158;48.750;9.078;2022-09-09T04:13:31;3.40;;;1.50;;
2299;SDS011;1158;48.750;9.078;2022-09-09T04:15:59;4.90;;;1.80;;
2299;SDS011;1158;48.750;9.078;2022-09-09T04:18:26;6.63;;;1.60;;
2299;SDS011;1158;48.750;9.078;2022-09-09T04:20:54;3.60;;;1.57;;
2299;SDS011;1158;48.750;9.078;2022-09-09T04:23:22;2.63;;;1.60;;
2299;SDS011;1158;48.750;9.078;2022-09-09T04:25:51;3.30;;;1.63;;
2299;SDS011;1158;48.750;9.078;2022-09-09T04:28:19;3.47;;;1.37;;
2299;SDS011;1158;48.750;9.078;2022-09-09T04:30:47;5.53;;;1.73;;
2299;SDS011;1158;48.750;9.078;2022-09-09T04:33:14;4.47;;;2.10;;
2299;SDS011;1158;48.750;9.078;2022-09-09T04:35:44;2.97;;;1.83;;
2299;SDS011;1158;48.750;9.078;2022-09-09T04:38:12;3.90;;;1.70;;
2299;SDS011;1158;48.750;9.078;2022-09-09T04:40:39;4.03;;;1.50;;
2299;SDS011;1158;48.750;9.078;2022-09-09T04:43:09;6.23;;;2.10;;
2299;SDS011;1158;48.750;9.078;2022-09-09T04:45:36;3.00;;;1.57;;
2299;SDS011;1158;48.750;9.078;2022-09-09T04:48:05;3.10;;;1.47;;
2299;SDS011;1158;48.750;9.078;2022-09-09T04:50:32;3.67;;;2.20;;
2299;SDS011;1158;48.750;9.078;2022-09-09T04:52:59;5.30;;;1.73;;
2299;SDS011;1158;48.750;9.078;2022-09-09T04:55:26;2.47;;;1.40;;
2299;SDS011;1158;48.750;9.078;2022-09-09T04:57:53;5.90;;;1.80;;
2299;SDS011;1158;48.750;9.078;2022-09-09T05:00:21;4.20;;;1.60;;
2299;SDS011;1158;48.750;9.078;2022-09-09T05:02:48;5.43;;;1.80;;
2299;SDS011;1158;48.750;9.078;2022-09-09T05:05:16;4.80;;;2.00;;
2299;SDS011;1158;48.750;9.078;2022-09-09T05:07:43;4.13;;;1.93;;
2299;SDS011;1158;48.750;9.078;2022-09-09T05:10:10;5.60;;;1.80;;
2299;SDS011;1158;48.750;9.078;2022-09-09T05:12:38;4.40;;;1.53;;
2299;SDS011;1158;48.750;9.078;2022-09-09T05:15:05;3.40;;;1.70;;
2299;SDS011;1158;48.750;9.078;2022-09-09T05:17:33;7.30;;;1.80;;
2299;SDS011;1158;48.750;9.078;2022-09-09T05:20:00;4.97;;;1.50;;
2299;SDS011;1158;48.750;9.078;2022-09-09T05:22:28;2.47;;;1.40;;
2299;SDS011;1158;48.750;9.078;2022-09-09T05:24:55;3.83;;;1.70;;
2299;SDS011;1158;48.750;9.078;2022-09-09T05:27:23;6.70;;;2.10;;
2299;SDS011;1158;48.750;9.078;2022-09-09T05:29:50;6.30;;;2.27;;
2299;SDS011;1158;48.750;9.078;2022-09-09T05:32:17;4.57;;;1.80;;
2299;SDS011;1158;48.750;9.078;2022-09-09T05:34:45;2.90;;;1.73;;
2299;SDS011;1158;48.750;9.078;2022-09-09T05:37:11;6.80;;;2.03;;
2299;SDS011;1158;48.750;9.078;2022-09-09T05:39:38;4.57;;;1.60;;
2299;SDS011;1158;48.750;9.078;2022-09-09T05:42:05;3.80;;;2.00;;
2299;SDS011;1158;48.750;9.078;2022-09-09T05:44:32;4.00;;;1.77;;
2299;SDS011;1158;48.750;9.078;2022-09-09T05:46:58;3.70;;;1.77;;
2299;SDS011;1158;48.750;9.078;2022-09-09T05:49:25;4.63;;;1.73;;
2299;SDS011;1158;48.750;9.078;2022-09-09T05:51:53;4.50;;;1.73;;
2299;SDS011;1158;48.750;9.078;2022-09-09T05:54:20;3.63;;;1.70;;
2299;SDS011;1158;48.750;9.078;2022-09-09T05:56:46;6.13;;;2.13;;
2299;SDS011;1158;48.750;9.078;2022-09-09T05:59:14;4.47;;;1.50;;
2299;SDS011;1158;48.750;9.078;2022-09-09T06:01:41;5.57;;;2.20;;
2299;SDS011;1158;48.750;9.078;2022-09-09T06:04:08;4.63;;;2.03;;
2299;SDS011;1158;48.750;9.078;2022-09-09T06:06:35;4.20;;;1.93;;
2299;SDS011;1158;48.750;9.078;2022-09-09T06:09:06;5.53;;;2.80;;
2299;SDS011;1158;48.750;9.078;2022-09-09T06:11:35;5.37;;;1.83;;
2299;SDS011;1158;48.750;9.078;2022-09-09T06:14:03;2.33;;;1.30;;
2299;SDS011;1158;48.750;9.078;2022-09-09T06:16:30;4.20;;;2.03;;
2299;SDS011;1158;48.750;9.078;2022-09-09T06:18:58;7.00;;;2.00;;
2299;SDS011;1158;48.750;9.078;2022-09-09T06:21:25;4.23;;;1.70;;
2299;SDS011;1158;48.750;9.078;2022-09-09T06:23:54;4.40;;;2.13;;
2299;SDS011;1158;48.750;9.078;2022-09-09T06:26:22;3.30;;;1.90;;
2299;SDS011;1158;48.750;9.078;2022-09-09T06:28:52;4.27;;;2.07;;
2299;SDS011;1158;48.750;9.078;2022-09-09T06:31:21;3.60;;;1.80;;
2299;SDS011;1158;48.750;9.078;2022-09-09T06:33:49;5.63;;;1.57;;
2299;SDS011;1158;48.750;9.078;2022-09-09T06:36:17;4.00;;;2.10;;
2299;SDS011;1158;48.750;9.078;2022-09-09T06:38:45;4.60;;;1.73;;
2299;SDS011;1158;48.750;9.078;2022-09-09T06:41:13;3.40;;;1.70;;
2299;SDS011;1158;48.750;9.078;2022-09-09T06:43:42;3.97;;;1.43;;
2299;SDS011;1158;48.750;9.078;2022-09-09T06:46:09;9.07;;;2.07;;
2299;SDS011;1158;48.750;9.078;2022-09-09T06:48:38;3.20;;;1.93;;
2299;SDS011;1158;48.750;9.078;2022-09-09T06:51:07;4.90;;;1.53;;
2299;SDS011;1158;48.750;9.078;2022-09-09T06:53:35;4.50;;;1.77;;
2299;SDS011;1158;48.750;9.078;2022-09-09T06:56:13;6.50;;;1.60;;
2299;SDS011;1158;48.750;9.078;2022-09-09T06:58:47;6.87;;;1.93;;
2299;SDS011;1158;48.750;9.078;2022-09-09T07:01:15;5.70;;;2.07;;
2299;SDS011;1158;48.750;9.078;2022-09-09T07:03:45;4.00;;;1.53;;
2299;SDS011;1158;48.750;9.078;2022-09-09T07:06:14;3.70;;;1.93;;
2299;SDS011;1158;48.750;9.078;2022-09-09T07:08:42;4.07;;;1.80;;
2299;SDS011;1158;48.750;9.078;2022-09-09T07:11:09;3.60;;;1.87;;
2299;SDS011;1158;48.750;9.078;2022-09-09T07:13:37;5.60;;;2.00;;
2299;SDS011;1158;48.750;9.078;2022-09-09T07:16:05;3.03;;;1.77;;
2299;SDS011;1158;48.750;9.078;2022-09-09T07:18:33;5.30;;;1.73;;
2299;SDS011;1158;48.750;9.078;2022-09-09T07:21:00;4.57;;;2.00;;
2299;SDS011;1158;48.750;9.078;2022-09-09T07:23:28;6.13;;;1.97;;
2299;SDS011;1158;48.750;9.078;2022-09-09T07:25:56;4.47;;;1.77;;
2299;SDS011;1158;48.750;9.078;2022-09-09T07:28:23;3.93;;;1.60;;
2299;SDS011;1158;48.750;9.078;2022-09-09T07:30:54;4.20;;;1.73;;
2299;SDS011;1158;48.750;9.078;2022-09-09T07:33:23;8.53;;;2.17;;
2299;SDS011;1158;48.750;9.078;2022-09-09T07:35:50;7.07;;;2.00;;
2299;SDS011;1158;48.750;9.078;2022-09-09T07:38:17;3.00;;;1.50;;
2299;SDS011;1158;48.750;9.078;2022-09-09T07:40:44;3.13;;;1.60;;
2299;SDS011;1158;48.750;9.078;2022-09-09T07:43:11;3.80;;;1.50;;
2299;SDS011;1158;48.750;9.078;2022-09-09T07:45:38;8.37;;;2.10;;
2299;SDS011;1158;48.750;9.078;2022-09-09T07:48:07;5.83;;;1.63;;
2299;SDS011;1158;48.750;9.078;2022-09-09T07:50:36;6.73;;;2.10;;
2299;SDS011;1158;48.750;9.078;2022-09-09T07:53:02;4.17;;;1.60;;
2299;SDS011;1158;48.750;9.078;2022-09-09T07:55:31;3.00;;;1.47;;
2299;SDS011;1158;48.750;9.078;2022-09-09T07:57:57;8.03;;;1.67;;
2299;SDS011;1158;48.750;9.078;2022-09-09T08:00:24;4.33;;;1.70;;
2299;SDS011;1158;48.750;9.078;2022-09-09T08:02:52;3.57;;;1.83;;
2299;SDS011;1158;48.750;9.078;2022-09-09T08:05:19;6.53;;;2.03;;
2299;SDS011;1158;48.750;9.078;2022-09-09T08:07:48;4.73;;;1.47;;
2299;SDS011;1158;48.750;9.078;2022-09-09T08:10:15;2.63;;;1.30;;
2299;SDS011;1158;48.750;9.078;2022-09-09T08:12:43;8.17;;;1.90;;
2299;SDS011;1158;48.750;9.078;2022-09-09T08:15:10;4.43;;;1.63;;
2299;SDS011;1158;48.750;9.078;2022-09-09T08:17:37;5.63;;;1.60;;
2299;SDS011;1158;48.750;9.078;2022-09-09T08:20:04;3.57;;;1.50;;
2299;SDS011;1158;48.750;9.078;2022-09-09T08:22:31;2.93;;;1.30;;
2299;SDS011;1158;48.750;9.078;2022-09-09T08:25:00;3.00;;;1.50;;
2299;SDS011;1158;48.750;9.078;2022-09-09T08:27:27;6.47;;;1.60;;
2299;SDS011;1158;48.750;9.078;2022-09-09T08:29:54;4.00;;;1.70;;
2299;SDS011;1158;48.750;9.078;2022-09-09T08:32:21;3.33;;;1.73;;
2299;SDS011;1158;48.750;9.078;2022-09-09T08:34:47;5.23;;;1.97;;
2299;SDS011;1158;48.750;9.078;2022-09-09T08:37:14;3.80;;;1.50;;
2299;SDS011;1158;48.750;9.078;2022-09-09T08:39:41;2.90;;;1.50;;
2299;SDS011;1158;48.750;9.078;2022-09-09T08:42:15;6.07;;;1.70;;
2299;SDS011;1158;48.750;9.078;2022-09-09T08:44:59;3.73;;;1.60;;
2299;SDS011;1158;48.750;9.078;2022-09-09T08:47:39;6.37;;;1.73;;
2299;SDS011;1158;48.750;9.078;2022-09-09T08:50:17;4.27;;;1.50;;
2299;SDS011;1158;48.750;9.078;2022-09-09T08:52:51;3.73;;;1.57;;
2299;SDS011;1158;48.750;9.078;2022-09-09T08:55:25;4.53;;;1.50;;
2299;SDS011;1158;48.750;9.078;2022-09-09T08:57:58;4.67;;;1.60;;
2299;SDS011;1158;48.750;9.078;2022-09-09T09:00:29;4.27;;;1.20;;
2299;SDS011;1158;48.750;9.078;2022-09-09T09:03:02;4.40;;;1.60;;
2299;SDS011;1158;48.750;9.078;2022-09-09T09:05:39;4.80;;;1.53;;
2299;SDS011;1158;48.750;9.078;2022-09-09T09:08:14;6.63;;;1.80;;
2299;SDS011;1158;48.750;9.078;2022-09-09T09:10:47;3.73;;;1.40;;
2299;SDS011;1158;48.750;9.078;2022-09-09T09:13:17;7.50;;;2.33;;
2299;SDS011;1158;48.750;9.078;2022-09-09T09:15:48;5.13;;;1.67;;
2299;SDS011;1158;48.750;9.078;2022-09-09T09:18:21;7.17;;;1.63;;
2299;SDS011;1158;48.750;9.078;2022-09-09T09:20:54;4.63;;;1.50;;
2299;SDS011;1158;48.750;9.078;2022-09-09T09:23:31;5.00;;;1.57;;
2299;SDS011;1158;48.750;9.078;2022-09-09T09:26:09;9.57;;;2.00;;
2299;SDS011;1158;48.750;9.078;2022-09-09T09:28:38;5.43;;;1.70;;
2299;SDS011;1158;48.750;9.078;2022-09-09T09:31:07;3.27;;;1.80;;
2299;SDS011;1158;48.750;9.078;2022-09-09T09:33:38;4.03;;;1.40;;
2299;SDS011;1158;48.750;9.078;2022-09-09T09:36:11;7.23;;;1.77;;
2299;SDS011;1158;48.750;9.078;2022-09-09T09:38:40;5.80;;;1.47;;
2299;SDS011;1158;48.750;9.078;2022-09-09T09:41:28;6.13;;;1.60;;
2299;SDS011;1158;48.750;9.078;2022-09-09T09:43:57;2.20;;;1.10;;
2299;SDS011;1158;48.750;9.078;2022-09-09T09:46:25;4.93;;;1.20;;
2299;SDS011;1158;48.750;9.078;2022-09-09T09:48:56;2.77;;;0.90;;
2299;SDS011;1158;48.750;9.078;2022-09-09T09:51:24;3.00;;;1.07;;
2299;SDS011;1158;48.750;9.078;2022-09-09T09:53:52;4.67;;;1.07;;
2299;SDS011;1158;48.750;9.078;2022-09-09T09:56:25;3.73;;;1.00;;
2299;SDS011;1158;48.750;9.078;2022-09-09T09:58:53;4.30;;;1.63;;
2299;SDS011;1158;48.750;9.078;2022-09-09T10:01:23;4.47;;;1.17;;
2299;SDS011;1158;48.750;9.078;2022-09-09T10:03:52;2.90;;;1.17;;
2299;SDS011;1158;48.750;9.078;2022-09-09T10:06:28;3.90;;;1.60;;
2299;SDS011;1158;48.750;9.078;2022-09-09T10:08:57;3.23;;;1.20;;
2299;SDS011;1158;48.750;9.078;2022-09-09T10:11:30;2.67;;;0.93;;
2299;SDS011;1158;48.750;9.078;2022-09-09T10:14:10;5.30;;;1.40;;
2299;SDS011;1158;48.750;9.078;2022-09-09T10:16:48;4.73;;;1.90;;
2299;SDS011;1158;48.750;9.078;2022-09-09T10:19:27;3.67;;;1.30;;
2299;SDS011;1158;48.750;9.078;2022-09-09T10:22:01;4.30;;;1.70;;
2299;SDS011;1158;48.750;9.078;2022-09-09T10:24:38;5.67;;;1.53;;
2299;SDS011;1158;48.750;9.078;2022-09-09T10:27:25;7.00;;;1.43;;
2299;SDS011;1158;48.750;9.078;2022-09-09T10:30:00;5.90;;;1.20;;
2299;SDS011;1158;48.750;9.078;2022-09-09T10:32:37;4.50;;;1.20;;
2299;SDS011;1158;48.750;9.078;2022-09-09T10:35:12;6.53;;;1.30;;
2299;SDS011;1158;48.750;9.078;2022-09-09T10:37:50;8.17;;;1.43;;
2299;SDS011;1158;48.750;9.078;2022-09-09T10:40:32;3.00;;;1.30;;
2299;SDS011;1158;48.750;9.078;2022-09-09T10:43:03;3.80;;;1.33;;
2299;SDS011;1158;48.750;9.078;2022-09-09T10:45:40;3.17;;;1.67;;
2299;SDS011;1158;48.750;9.078;2022-09-09T10:48:20;6.20;;;1.30;;
2299;SDS011;1158;48.750;9.078;2022-09-09T10:51:00;4.73;;;1.40;;
2299;SDS011;1158;48.750;9.078;2022-09-09T10:53:37;3.77;;;1.63;;
2299;SDS011;1158;48.750;9.078;2022-09-09T10:56:15;6.20;;;1.77;;
2299;SDS011;1158;48.750;9.078;2022-09-09T10:58:46;2.70;;;1.33;;
2299;SDS011;1158;48.750;9.078;2022-09-09T11:01:18;7.20;;;1.63;;
2299;SDS011;1158;48.750;9.078;2022-09-09T11:03:51;7.20;;;1.43;;
2299;SDS011;1158;48.750;9.078;2022-09-09T11:06:22;4.10;;;1.10;;
2299;SDS011;1158;48.750;9.078;2022-09-09T11:08:55;6.03;;;1.50;;
2299;SDS011;1158;48.750;9.078;2022-09-09T11:11:27;3.67;;;1.20;;
2299;SDS011;1158;48.750;9.078;2022-09-09T11:13:59;5.20;;;1.77;;
2299;SDS011;1158;48.750;9.078;2022-09-09T11:16:33;4.70;;;1.30;;
2299;SDS011;1158;48.750;9.078;2022-09-09T11:19:11;7.17;;;1.50;;
2299;SDS011;1158;48.750;9.078;2022-09-09T11:21:42;3.67;;;0.93;;
2299;SDS011;1158;48.750;9.078;2022-09-09T11:24:13;3.70;;;1.10;;
2299;SDS011;1158;48.750;9.078;2022-09-09T11:26:47;3.43;;;1.07;;
2299;SDS011;1158;48.750;9.078;2022-09-09T11:29:38;3.00;;;1.43;;
2299;SDS011;1158;48.750;9.078;2022-09-09T11:35:19;3.33;;;1.40;;
2299;SDS011;1158;48.750;9.078;2022-09-09T11:40:53;4.73;;;1.37;;
2299;SDS011;1158;48.750;9.078;2022-09-09T11:43:25;2.30;;;1.00;;
2299;SDS011;1158;48.750;9.078;2022-09-09T11:45:57;3.30;;;1.13;;
2299;SDS011;1158;48.750;9.078;2022-09-09T11:48:29;2.90;;;0.93;;
2299;SDS011;1158;48.750;9.078;2022-09-09T11:51:01;4.60;;;1.30;;
2299;SDS011;1158;48.750;9.078;2022-09-09T11:53:32;2.87;;;1.17;;
2299;SDS011;1158;48.750;9.078;2022-09-09T11:56:08;2.97;;;0.90;;
2299;SDS011;1158;48.750;9.078;2022-09-09T11:58:41;2.80;;;1.13;;
2299;SDS011;1158;48.750;9.078;2022-09-09T12:01:14;5.53;;;1.10;;
2299;SDS011;1158;48.750;9.078;2022-09-09T12:03:51;3.10;;;1.10;;
2299;SDS011;1158;48.750;9.078;2022-09-09T12:06:32;2.90;;;1.07;;
2299;SDS011;1158;48.750;9.078;2022-09-09T12:09:18;2.53;;;0.80;;
2299;SDS011;1158;48.750;9.078;2022-09-09T12:11:49;3.37;;;0.90;;
2299;SDS011;1158;48.750;9.078;2022-09-09T12:14:19;2.10;;;0.80;;
2299;SDS011;1158;48.750;9.078;2022-09-09T12:16:48;1.77;;;0.83;;
2299;SDS011;1158;48.750;9.078;2022-09-09T12:19:16;1.57;;;0.70;;
2299;SDS011;1158;48.750;9.078;2022-09-09T12:21:50;2.47;;;0.77;;
2299;SDS011;1158;48.750;9.078;2022-09-09T12:24:27;2.30;;;0.77;;
2299;SDS011;1158;48.750;9.078;2022-09-09T12:27:02;1.93;;;0.97;;
2299;SDS011;1158;48.750;9.078;2022-09-09T12:29:40;3.63;;;0.87;;
2299;SDS011;1158;48.750;9.078;2022-09-09T12:32:11;2.37;;;0.90;;
2299;SDS011;1158;48.750;9.078;2022-09-09T12:34:42;3.60;;;1.07;;
2299;SDS011;1158;48.750;9.078;2022-09-09T12:37:16;4.60;;;0.80;;
2299;SDS011;1158;48.750;9.078;2022-09-09T12:39:51;2.43;;;1.00;;
2299;SDS011;1158;48.750;9.078;2022-09-09T12:42:21;2.20;;;1.10;;
2299;SDS011;1158;48.750;9.078;2022-09-09T12:44:56;3.20;;;1.07;;
2299;SDS011;1158;48.750;9.078;2022-09-09T12:47:29;3.60;;;1.10;;
2299;SDS011;1158;48.750;9.078;2022-09-09T12:50:03;3.80;;;1.00;;
2299;SDS011;1158;48.750;9.078;2022-09-09T12:52:31;2.60;;;0.87;;
2299;SDS011;1158;48.750;9.078;2022-09-09T12:55:03;3.67;;;1.10;;
2299;SDS011;1158;48.750;9.078;2022-09-09T12:57:34;2.07;;;0.90;;
2299;SDS011;1158;48.750;9.078;2022-09-09T13:00:04;3.80;;;0.90;;
2299;SDS011;1158;48.750;9.078;2022-09-09T13:02:35;2.70;;;1.00;;
2299;SDS011;1158;48.750;9.078;2022-09-09T13:05:13;2.40;;;0.90;;
2299;SDS011;1158;48.750;9.078;2022-09-09T13:07:43;2.60;;;0.80;;
2299;SDS011;1158;48.750;9.078;2022-09-09T13:10:10;3.30;;;1.00;;
2299;SDS011;1158;48.750;9.078;2022-09-09T13:12:38;2.30;;;1.20;;
2299;SDS011;1158;48.750;9.078;2022-09-09T13:15:10;4.03;;;1.10;;
2299;SDS011;1158;48.750;9.078;2022-09-09T13:17:48;4.07;;;1.20;;
2299;SDS011;1158;48.750;9.078;2022-09-09T13:20:18;2.97;;;1.00;;
2299;SDS011;1158;48.750;9.078;2022-09-09T13:22:48;3.60;;;1.30;;
2299;SDS011;1158;48.750;9.078;2022-09-09T13:25:18;3.43;;;0.90;;
2299;SDS011;1158;48.750;9.078;2022-09-09T13:27:53;3.10;;;1.27;;
2299;SDS011;1158;48.750;9.078;2022-09-09T13:30:22;3.73;;;1.10;;
2299;SDS011;1158;48.750;9.078;2022-09-09T13:33:00;4.97;;;1.13;;
2299;SDS011;1158;48.750;9.078;2022-09-09T13:35:28;2.47;;;0.90;;
2299;SDS011;1158;48.750;9.078;2022-09-09T13:37:56;2.33;;;0.83;;
2299;SDS011;1158;48.750;9.078;2022-09-09T13:40:24;2.57;;;1.00;;
2299;SDS011;1158;48.750;9.078;2022-09-09T13:42:53;2.77;;;0.93;;
2299;SDS011;1158;48.750;9.078;2022-09-09T13:45:23;2.60;;;1.00;;
2299;SDS011;1158;48.750;9.078;2022-09-09T13:47:52;3.27;;;1.17;;
2299;SDS011;1158;48.750;9.078;2022-09-09T13:50:21;3.23;;;0.90;;
2299;SDS011;1158;48.750;9.078;2022-09-09T13:52:49;3.07;;;1.00;;
2299;SDS011;1158;48.750;9.078;2022-09-09T13:55:17;2.37;;;0.90;;
2299;SDS011;1158;48.750;9.078;2022-09-09T13:57:50;1.73;;;0.80;;
2299;SDS011;1158;48.750;9.078;2022-09-09T14:00:18;2.67;;;1.00;;
2299;SDS011;1158;48.750;9.078;2022-09-09T14:02:45;3.80;;;1.13;;
2299;SDS011;1158;48.750;9.078;2022-09-09T14:05:12;2.77;;;1.00;;
2299;SDS011;1158;48.750;9.078;2022-09-09T14:07:40;2.63;;;0.80;;
2299;SDS011;1158;48.750;9.078;2022-09-09T14:10:07;3.73;;;1.40;;
2299;SDS011;1158;48.750;9.078;2022-09-09T14:12:36;4.50;;;1.17;;
2299;SDS011;1158;48.750;9.078;2022-09-09T14:15:03;1.97;;;0.80;;
2299;SDS011;1158;48.750;9.078;2022-09-09T14:17:31;2.40;;;0.80;;
2299;SDS011;1158;48.750;9.078;2022-09-09T14:19:58;3.57;;;1.40;;
2299;SDS011;1158;48.750;9.078;2022-09-09T14:22:25;3.37;;;0.90;;
2299;SDS011;1158;48.750;9.078;2022-09-09T14:24:53;4.97;;;1.30;;
2299;SDS011;1158;48.750;9.078;2022-09-09T14:27:20;1.80;;;0.80;;
2299;SDS011;1158;48.750;9.078;2022-09-09T14:29:48;1.60;;;0.80;;
2299;SDS011;1158;48.750;9.078;2022-09-09T14:32:14;2.27;;;0.90;;
2299;SDS011;1158;48.750;9.078;2022-09-09T14:34:41;2.37;;;0.90;;
2299;SDS011;1158;48.750;9.078;2022-09-09T14:37:08;3.53;;;0.90;;
2299;SDS011;1158;48.750;9.078;2022-09-09T14:39:34;2.40;;;1.00;;
2299;SDS011;1158;48.750;9.078;2022-09-09T14:42:01;1.87;;;0.77;;
2299;SDS011;1158;48.750;9.078;2022-09-09T14:44:28;1.80;;;0.70;;
2299;SDS011;1158;48.750;9.078;2022-09-09T14:46:56;1.80;;;0.70;;
2299;SDS011;1158;48.750;9.078;2022-09-09T14:49:23;2.00;;;0.70;;
2299;SDS011;1158;48.750;9.078;2022-09-09T14:51:50;2.07;;;0.80;;
2299;SDS011;1158;48.750;9.078;2022-09-09T14:54:16;1.67;;;0.80;;
2299;SDS011;1158;48.750;9.078;2022-09-09T14:56:43;1.90;;;0.80;;
2299;SDS011;1158;48.750;9.078;2022-09-09T14:59:10;2.70;;;0.90;;
2299;SDS011;1158;48.750;9.078;2022-09-09T15:01:38;3.83;;;1.03;;
2299;SDS011;1158;48.750;9.078;2022-09-09T15:04:06;2.70;;;0.97;;
2299;SDS011;1158;48.750;9.078;2022-09-09T15:06:33;3.43;;;1.10;;
2299;SDS011;1158;48.750;9.078;2022-09-09T15:09:04;2.03;;;1.00;;
2299;SDS011;1158;48.750;9.078;2022-09-09T15:11:33;3.30;;;1.30;;
2299;SDS011;1158;48.750;9.078;2022-09-09T15:14:02;2.20;;;0.97;;
2299;SDS011;1158;48.750;9.078;2022-09-09T15:16:29;3.40;;;1.00;;
2299;SDS011;1158;48.750;9.078;2022-09-09T15:18:57;4.43;;;1.77;;
2299;SDS011;1158;48.750;9.078;2022-09-09T15:21:27;4.07;;;1.20;;
2299;SDS011;1158;48.750;9.078;2022-09-09T15:23:55;3.37;;;1.30;;
2299;SDS011;1158;48.750;9.078;2022-09-09T15:26:22;3.30;;;1.13;;
2299;SDS011;1158;48.750;9.078;2022-09-09T15:28:49;2.17;;;0.97;;
2299;SDS011;1158;48.750;9.078;2022-09-09T15:31:17;3.40;;;1.27;;
2299;SDS011;1158;48.750;9.078;2022-09-09T15:33:48;3.30;;;1.20;;
2299;SDS011;1158;48.750;9.078;2022-09-09T15:36:16;4.80;;;1.20;;
2299;SDS011;1158;48.750;9.078;2022-09-09T15:38:47;2.63;;;1.03;;
2299;SDS011;1158;48.750;9.078;2022-09-09T15:41:14;3.90;;;1.53;;
2299;SDS011;1158;48.750;9.078;2022-09-09T15:43:43;2.87;;;1.50;;
2299;SDS011;1158;48.750;9.078;2022-09-09T15:46:21;3.43;;;1.20;;
2299;SDS011;1158;48.750;9.078;2022-09-09T15:48:51;2.33;;;1.00;;
2299;SDS011;1158;48.750;9.078;2022-09-09T15:51:17;4.30;;;1.00;;